Alexander, Arkansas
Current Conditions -  °F | °C
As of 3:53 PM on Friday 19 Dec 2014 (Local Time) from KLIT Reporting Station
Overcast Overcast  
Wind Chill: 40°   Ceiling: 1400
Heat Index: 44°   Visibility: 7mi
Dew Point: 37°   Wind: 7mph
Humidity: 76%   Direction: 40°NE
Pressure: 30.21"   Gusts: NA
Location:  34.63°N, 92.44°W
Report Text: KLIT 192153Z 04006KT 7SM OVC014 07/03 A3021 RMK AO2 SLP233 T00670028
Loading
Personal Weather Stations






























Interactive Weather Map New forecast layout! Learn more

10-Day Weather Forecast

Advertisements
Track Severe Weather on mobile